Latest Coastal Weather Observations for King Island Airport

IDT60701

Issued at 4:52 am EDT Friday 18 October 2019 (issued every 10 minutes, with the page automatically refreshed every 10 minutes)

About coastal observations | Map of coastal stations | Coastal observations for TAS | Marine services | Other Formats
Station Details ID: 098017 Name: KING ISLAND AIRPORT Lat: -39.88 Lon: 143.89 Height: 35.42 m
Data from the previous 72 hours. | See also: Recent months at King Island Airport
Date/Time
EDT
Wind Sea
Height
m
Swell Vis
km
Cloud Weather Temp
°C
Press
hPa
Rain since
9am
mm
Dir  Spd
kts
Gust
kts
Height
m
Period
s
Dir
18/04:30am NW 24 29 - - - - 10 Partly cloudy - 11.7 1010.9 3.2
18/04:04am WNW 19 29 - - - - 10 Partly cloudy - 11.6 1011.3 3.2
18/04:00am WNW 22 30 - - - - 10 Partly cloudy - 11.6 1011.3 3.2
18/03:32am NW 22 34 - - - - 10 Partly cloudy - 11.7 1011.6 3.2
18/03:30am NW 21 29 - - - - 10 Partly cloudy - 11.7 1011.8 3.2
18/03:00am NW 20 24 - - - - 10 Cloudy - 11.6 1012.1 3.2
18/02:30am WNW 18 26 - - - - 10 Cloudy - 11.6 1012.3 3.2
18/02:00am WNW 16 29 - - - - 10 Partly cloudy - 11.5 1012.6 3.2
18/01:30am WNW 20 27 - - - - 10 Partly cloudy - 11.3 1013.2 3.2
18/01:00am WNW 18 23 - - - - 10 Cloudy - 11.4 1013.3 3.2
18/12:30am WNW 15 21 - - - - 10 Cloudy - 11.3 1013.5 3.2
18/12:00am WNW 14 22 - - - - 10 Cloudy - 11.1 1013.6 3.2
 
Date/Time
EDT
Wind Sea
Height
m
Swell Vis
km
Cloud Weather Temp
°C
Press
hPa
Rain since
9am
mm
Dir  Spd
kts
Gust
kts
Height
m
Period
s
Dir
17/11:30pm W 16 24 - - - - 10 Cloudy - 11.1 1014.0 3.2
17/11:22pm W 15 25 - - - - 10 Cloudy - 11.2 1014.0 3.2
17/11:00pm WNW 17 26 - - - - 10 Partly cloudy - 11.4 1013.9 3.2
17/10:30pm W 14 19 - - - - 10 Partly cloudy - 11.0 1013.9 3.2
17/10:00pm W 16 23 - - - - 10 Partly cloudy - 11.4 1013.8 3.2
17/09:30pm W 15 21 - - - - 10 Partly cloudy - 11.4 1013.7 3.2
17/09:00pm W 15 20 - - - - 10 Cloudy - 11.5 1013.4 3.2
17/08:30pm W 14 19 - - - - 10 Partly cloudy - 11.3 1012.9 3.2
17/08:00pm W 14 19 - - - - 10 Partly cloudy - 11.4 1012.5 3.2
17/07:30pm WSW 13 16 - - - - 10 Partly cloudy - 11.6 1012.1 3.2
17/07:00pm WSW 12 17 - - - - 10 Partly cloudy - 12.2 1011.6 3.2
17/06:30pm WSW 13 18 - - - - 10 Partly cloudy - 12.3 1011.1 3.2
17/06:00pm WSW 13 17 - - - - 10 Mostly clear - 12.9 1010.8 3.2
17/05:30pm WSW 14 19 - - - - 10 - - 12.7 1010.5 3.2
17/05:00pm WSW 16 22 - - - - 10 Partly cloudy - 12.8 1010.0 3.2
17/04:30pm SW 17 21 - - - - 10 Partly cloudy - 13.4 1009.6 3.2
17/04:00pm SW 16 21 - - - - 10 Partly cloudy - 13.6 1009.2 3.2
17/03:30pm SW 18 22 - - - - 10 Partly cloudy - 12.9 1008.8 3.2
17/03:00pm SW 17 23 - - - - 10 Cloudy - 13.4 1008.5 3.2
17/02:30pm SW 17 23 - - - - 10 Partly cloudy - 12.9 1008.2 3.2
17/02:00pm SSW 17 24 - - - - 10 Partly cloudy - 12.4 1007.9 3.2
17/01:30pm SW 16 22 - - - - 10 Partly cloudy - 12.8 1007.4 3.2
17/01:00pm SW 14 21 - - - - 10 Partly cloudy - 12.7 1007.2 3.2
17/12:30pm SW 13 17 - - - - 10 Partly cloudy - 12.4 1006.8 3.2
17/12:00pm SW 12 16 - - - - 9 Cloudy Rain 10.6 1006.7 3.0
17/11:30am SSW 14 19 - - - - 10 Partly cloudy - 10.5 1006.3 2.4
17/11:00am SW 16 20 - - - - 10 Partly cloudy - 11.1 1005.9 2.2
17/10:30am SW 13 17 - - - - 10 Partly cloudy - 10.7 1005.5 2.2
17/10:00am WSW 7 9 - - - - 10 Partly cloudy - 10.5 1005.1 2.0
17/09:44am WSW 9 12 - - - - 9 Partly cloudy - 9.4 1005.0 1.8
17/09:30am WSW 8 11 - - - - 5 Partly cloudy - 9.0 1004.9 1.0
17/09:14am WSW 9 14 - - - - 10 Partly cloudy - 9.3 1004.8 0.0
17/09:00am W 13 21 - - - - 4 Cloudy Rain 9.1 1004.8 13.6
17/08:56am W 13 21 - - - - 5 Partly cloudy - 8.9 1004.8 13.2
17/08:30am WSW 10 14 - - - - 10 Partly cloudy - 10.9 1004.4 12.4
17/08:00am W 9 14 - - - - 10 Partly cloudy - 10.2 1004.4 12.4
17/07:30am W 10 16 - - - - 10 Partly cloudy - 9.5 1004.1 12.4
17/07:00am W 14 19 - - - - 10 Partly cloudy - 9.2 1003.8 12.4
17/06:30am WNW 9 14 - - - - 10 Partly cloudy - 9.2 1003.6 12.4
17/06:00am WNW 11 17 - - - - 10 Cloudy Showers 8.5 1003.7 12.4
17/05:30am WNW 13 19 - - - - 6 Partly cloudy - 8.3 1003.9 12.0
17/05:00am NE 3 5 - - - - 10 Partly cloudy - 7.3 1004.0 11.4
17/04:30am CALM 0 0 - - - - 10 Partly cloudy - 7.7 1004.0 11.4
17/04:00am SSW 6 8 - - - - 10 Partly cloudy - 8.0 1003.9 11.4
17/03:30am W 12 17 - - - - 10 Partly cloudy - 8.2 1004.7 11.2
17/03:13am WNW 13 18 - - - - 9 Partly cloudy - 8.3 1005.0 10.4
17/03:00am WNW 13 18 - - - - 5 Cloudy Rain 8.4 1005.2 9.0
17/02:54am WNW 14 18 - - - - 5 Partly cloudy - 8.3 1005.3 8.4
17/02:35am NW 5 13 - - - - 5 Partly cloudy - 9.0 1005.5 4.8
17/02:34am WNW 4 8 - - - - 6 Partly cloudy - 9.0 1005.5 4.4
17/02:30am SE 1 5 - - - - 7 Partly cloudy - 8.9 1005.2 3.8
17/02:00am ESE 4 7 - - - - 10 Partly cloudy - 8.6 1005.4 1.2
17/01:30am E 6 7 - - - - 10 Partly cloudy - 8.2 1005.9 0.8
17/01:00am ESE 5 6 - - - - 10 Cloudy - 7.8 1006.5 0.8
17/12:30am ESE 5 6 - - - - 10 Partly cloudy - 6.8 1006.7 0.8
17/12:00am ESE 5 6 - - - - 10 Mostly clear - 5.8 1007.1 0.8
 
Date/Time
EDT
Wind Sea
Height
m
Swell Vis
km
Cloud Weather Temp
°C
Press
hPa
Rain since
9am
mm
Dir  Spd
kts
Gust
kts
Height
m
Period
s
Dir
16/11:30pm E 4 5 - - - - 10 - - 7.1 1007.5 0.8
16/11:00pm CALM 0 0 - - - - 10 Partly cloudy - 7.9 1008.1 0.8
16/10:30pm CALM 0 0 - - - - 10 Partly cloudy - 8.4 1008.3 0.8
16/10:00pm CALM 0 0 - - - - 10 Partly cloudy - 8.4 1008.4 0.8
16/09:30pm CALM 0 0 - - - - 10 Partly cloudy - 8.5 1008.6 0.8
16/09:00pm WNW 4 5 - - - - 10 Partly cloudy - 10.2 1008.7 0.8
16/08:30pm WNW 5 6 - - - - 10 Partly cloudy - 10.1 1008.6 0.8
16/08:00pm WNW 4 5 - - - - 10 Partly cloudy - 10.7 1008.3 0.8
16/07:30pm NW 5 6 - - - - 10 Partly cloudy - 11.2 1008.3 0.8
16/07:00pm WNW 6 8 - - - - 10 Partly cloudy - 12.5 1008.4 0.8
16/06:30pm WNW 7 9 - - - - 10 Partly cloudy - 12.7 1008.3 0.8
16/06:00pm NW 10 12 - - - - 10 Mostly clear Recent precip. 13.0 1008.2 0.8
16/05:30pm NW 9 11 - - - - 10 - - 13.2 1008.2 0.8
16/05:00pm NW 13 15 - - - - 10 - - 13.2 1008.2 0.6
16/04:30pm NW 11 14 - - - - 10 Partly cloudy - 14.2 1008.2 0.6
16/04:00pm WNW 10 14 - - - - 10 Partly cloudy - 15.1 1008.3 0.6
16/03:30pm NNW 8 14 - - - - 10 Partly cloudy - 15.8 1008.3 0.6
16/03:00pm NE 3 8 - - - - 10 Cloudy Rain 14.0 1008.5 0.6
16/02:30pm ENE 7 10 - - - - 10 Partly cloudy - 13.9 1008.6 0.6
16/02:00pm NE 6 9 - - - - 10 Partly cloudy - 13.2 1009.1 0.6
16/01:30pm E 4 6 - - - - 10 Partly cloudy - 12.5 1009.3 0.6
16/01:00pm ENE 7 9 - - - - 10 Partly cloudy - 11.6 1009.4 0.6
16/12:43pm ENE 9 12 - - - - 10 Partly cloudy - 12.0 1009.3 0.6
16/12:30pm ENE 8 10 - - - - 10 Partly cloudy - 11.5 1009.9 0.6
16/12:05pm ENE 7 9 - - - - 10 Partly cloudy - 11.3 1010.4 0.4
16/12:00pm ENE 7 9 - - - - 10 Cloudy Showers 11.3 1010.3 0.4
16/11:30am E 7 9 - - - - 10 Partly cloudy - 10.9 1010.6 0.2
16/11:00am ENE 7 10 - - - - 10 Partly cloudy - 11.3 1010.9 0.2
16/10:30am E 6 7 - - - - 10 Partly cloudy - 11.5 1011.2 0.2
16/10:00am ENE 7 9 - - - - 10 Partly cloudy - 11.1 1011.2 0.2
16/09:30am ENE 4 5 - - - - 10 Partly cloudy - 10.1 1011.6 0.0
16/09:00am E 3 4 - - - - 10 Cloudy Showers 10.0 1011.7 -
16/08:30am E 5 6 - - - - 10 Partly cloudy - 9.5 1011.6 -
16/08:00am CALM 0 0 - - - - 10 Partly cloudy - 8.6 1011.7 -
16/07:30am CALM 0 0 - - - - 10 Cloudy - 7.2 1012.0 -
16/07:00am CALM 0 0 - - - - 10 Partly cloudy - 6.2 1011.8 -
16/06:30am CALM 0 0 - - - - 10 Cloudy - 5.6 1011.9 -
16/06:00am CALM 0 0 - - - - 10 Cloudy - 5.1 1012.0 -
16/05:30am SE 3 4 - - - - 10 Cloudy - 5.0 1011.8 -
16/05:00am SE 5 6 - - - - 10 Cloudy - 4.8 1011.7 -
16/04:30am SE 5 7 - - - - 10 Partly cloudy - 4.9 1012.0 -
16/04:00am ESE 4 5 - - - - 10 Partly cloudy - 4.5 1012.6 -
16/03:30am ESE 4 5 - - - - 10 Partly cloudy - 4.6 1012.9 -
16/03:00am E 4 4 - - - - 10 - - 4.4 1013.1 0.0
16/02:30am E 3 4 - - - - 10 - - 3.5 1013.1 -
16/02:00am ESE 2 5 - - - - 10 - - 4.5 1013.1 -
16/01:30am CALM 0 0 - - - - 10 - - 5.2 1013.7 -
16/01:00am CALM 0 0 - - - - 10 - - 5.0 1013.8 -
16/12:30am CALM 0 0 - - - - 10 - - 5.3 1013.7 -
16/12:00am CALM 0 0 - - - - 10 Partly cloudy - 5.9 1013.9 -
 
Date/Time
EDT
Wind Sea
Height
m
Swell Vis
km
Cloud Weather Temp
°C
Press
hPa
Rain since
9am
mm
Dir  Spd
kts
Gust
kts
Height
m
Period
s
Dir
15/11:30pm ESE 3 3 - - - - 10 - - 6.5 1013.9 -
15/11:00pm ESE 3 4 - - - - 10 - - 6.9 1014.1 -
15/10:30pm ESE 3 4 - - - - 10 - - 6.5 1014.4 -
15/10:00pm CALM 0 0 - - - - 10 Partly cloudy - 7.0 1014.6 -
15/09:30pm CALM 0 0 - - - - 10 Partly cloudy - 7.6 1014.7 -
15/09:00pm CALM 0 0 - - - - 10 Cloudy - 8.1 1014.5 0.0
15/08:30pm CALM 0 0 - - - - 10 - - 8.9 1014.3 -
15/08:00pm SW 3 5 - - - - 10 Partly cloudy - 9.7 1014.2 -
15/07:30pm SW 4 6 - - - - 10 Partly cloudy - 10.7 1014.0 -
15/07:00pm SW 7 9 - - - - 10 Partly cloudy - 11.3 1013.9 -
15/06:30pm WSW 9 13 - - - - 10 Partly cloudy - 11.8 1013.7 -
15/06:00pm WSW 10 13 - - - - 10 Cloudy - 11.9 1013.6 -
15/05:30pm SW 10 13 - - - - 10 Partly cloudy - 12.1 1013.4 -
15/05:00pm WSW 10 14 - - - - 10 Partly cloudy - 12.4 1013.1 -
15/04:30pm SW 10 13 - - - - 10 Partly cloudy - 12.8 1013.2 -
15/04:00pm SW 12 15 - - - - 10 Cloudy - 12.8 1013.2 -
15/03:30pm WSW 11 15 - - - - 10 Partly cloudy - 13.9 1013.2 -
15/03:00pm WSW 11 15 - - - - 10 Cloudy - 13.8 1013.5 -
15/02:30pm WSW 10 12 - - - - 10 Partly cloudy - 14.5 1013.6 -
15/02:00pm W 10 14 - - - - 10 Partly cloudy - 14.0 1013.7 -
15/01:30pm WSW 9 13 - - - - 10 Cloudy - 14.1 1013.6 -
15/01:00pm WSW 10 13 - - - - 10 Partly cloudy - 13.9 1013.8 -
15/12:00pm W 10 13 - - - - 10 Cloudy - 13.8 1013.9 0.0
15/11:45am W 10 12 - - - - - Partly cloudy - 13.5 1014.0 0.0
15/11:30am WNW 9 11 - - - - - - - 13.9 1013.8 0.0
15/11:00am W 8 11 - - - - - Partly cloudy - 13.4 1013.8 0.0
15/10:30am WNW 6 8 - - - - - Partly cloudy - 13.5 1013.8 0.0
15/10:00am WNW 6 9 - - - - 0 Partly cloudy - 12.7 1014.0 0.0
15/09:50am WNW 7 8 - - - - 0.3 Partly cloudy - 12.0 1014.0 0.0
15/09:30am WNW 8 10 - - - - 10 Partly cloudy - 12.0 1014.0 0.0
15/09:22am WNW 8 10 - - - - 10 Partly cloudy - 11.9 1014.1 0.0
15/09:01am WNW 7 9 - - - - 10 Cloudy - 11.6 1014.1 0.0
15/09:00am WNW 7 9 - - - - 10 Mostly cloudy Showers 11.6 1014.1 0.4
15/08:42am W 9 14 - - - - 5 Partly cloudy - 11.3 1014.1 0.4
15/08:33am W 9 13 - - - - 9 Partly cloudy - 11.6 1014.1 0.4
15/08:30am W 10 13 - - - - 10 Partly cloudy - 11.7 1014.1 0.4
15/08:19am WNW 10 14 - - - - 5 Partly cloudy - 11.8 1014.1 0.4
15/08:00am NW 9 11 - - - - 10 Partly cloudy - 12.6 1013.8 0.0
15/07:30am NW 10 12 - - - - 10 Partly cloudy - 12.1 1013.9 0.0
15/07:00am NW 8 9 - - - - 10 Partly cloudy - 11.5 1013.8 0.0
15/06:30am NW 6 7 - - - - 10 Partly cloudy - 10.4 1013.7 0.0
15/06:00am NW 7 8 - - - - 10 - - 9.8 1013.5 0.0
15/05:30am WNW 5 8 - - - - 10 Cloudy - 11.6 1013.3 0.0
15/05:00am W 6 8 - - - - 10 Cloudy - 11.8 1013.6 0.0

Other formats

Comma delimited format used in spreadsheet applications
http://www.bom.gov.au/fwo/IDT60701/IDT60701.94850.axf

JavaScript Object Notation format (JSON) in row-major order
http://www.bom.gov.au/fwo/IDT60701/IDT60701.94850.json

Data quality

Most of these data are generated automatically and are frequently updated. Quality checks on data are not normally performed. It is possible for incorrect values to appear. Refer to information at About Latest Weather Observations and please check the disclaimer before using these data.